sensor_id;sensor_type;location;lat;lon;timestamp;pressure;altitude;pressure_sealevel;temperature;humidity
64192;BME280;50497;50.720;-2.084;2023-02-11T00:00:32;103625.81;;;6.66;100.00
64192;BME280;50497;50.720;-2.084;2023-02-11T00:02:58;103607.81;;;6.48;100.00
64192;BME280;50497;50.720;-2.084;2023-02-11T00:05:24;103631.69;;;6.45;100.00
64192;BME280;50497;50.720;-2.084;2023-02-11T00:07:49;103617.38;;;6.37;100.00
64192;BME280;50497;50.720;-2.084;2023-02-11T00:10:14;103636.16;;;6.46;100.00
64192;BME280;50497;50.720;-2.084;2023-02-11T00:12:40;103641.41;;;6.43;100.00
64192;BME280;50497;50.720;-2.084;2023-02-11T00:15:08;103638.84;;;6.50;100.00
64192;BME280;50497;50.720;-2.084;2023-02-11T00:17:34;103642.38;;;6.48;100.00
64192;BME280;50497;50.720;-2.084;2023-02-11T00:19:59;103641.63;;;6.56;100.00
64192;BME280;50497;50.720;-2.084;2023-02-11T00:22:25;103639.84;;;6.56;100.00
64192;BME280;50497;50.720;-2.084;2023-02-11T00:24:51;103634.69;;;6.67;100.00
64192;BME280;50497;50.720;-2.084;2023-02-11T00:27:16;103640.09;;;6.73;100.00
64192;BME280;50497;50.720;-2.084;2023-02-11T00:29:42;103639.41;;;6.85;100.00
64192;BME280;50497;50.720;-2.084;2023-02-11T00:32:09;103638.56;;;6.88;100.00
64192;BME280;50497;50.720;-2.084;2023-02-11T00:34:35;103643.22;;;7.02;100.00
64192;BME280;50497;50.720;-2.084;2023-02-11T00:37:01;103643.34;;;7.13;100.00
64192;BME280;50497;50.720;-2.084;2023-02-11T00:39:26;103650.50;;;7.17;100.00
64192;BME280;50497;50.720;-2.084;2023-02-11T00:41:52;103652.47;;;7.32;100.00
64192;BME280;50497;50.720;-2.084;2023-02-11T00:44:17;103662.25;;;7.33;100.00
64192;BME280;50497;50.720;-2.084;2023-02-11T00:46:43;103680.97;;;7.38;100.00
64192;BME280;50497;50.720;-2.084;2023-02-11T00:49:09;103690.78;;;7.42;100.00
64192;BME280;50497;50.720;-2.084;2023-02-11T00:51:34;103711.22;;;7.43;100.00
64192;BME280;50497;50.720;-2.084;2023-02-11T00:54:00;103699.66;;;7.43;100.00
64192;BME280;50497;50.720;-2.084;2023-02-11T00:56:25;103714.78;;;7.45;100.00
64192;BME280;50497;50.720;-2.084;2023-02-11T00:58:51;103707.75;;;7.50;100.00
64192;BME280;50497;50.720;-2.084;2023-02-11T01:01:17;103716.59;;;7.46;100.00
64192;BME280;50497;50.720;-2.084;2023-02-11T01:03:43;103729.88;;;7.45;100.00
64192;BME280;50497;50.720;-2.084;2023-02-11T01:06:09;103738.00;;;7.52;100.00
64192;BME280;50497;50.720;-2.084;2023-02-11T01:08:34;103736.22;;;7.54;100.00
64192;BME280;50497;50.720;-2.084;2023-02-11T01:11:03;103745.06;;;7.52;100.00
64192;BME280;50497;50.720;-2.084;2023-02-11T01:13:32;103742.38;;;7.49;100.00
64192;BME280;50497;50.720;-2.084;2023-02-11T01:15:57;103741.50;;;7.51;100.00
64192;BME280;50497;50.720;-2.084;2023-02-11T01:18:24;103749.53;;;7.53;100.00
64192;BME280;50497;50.720;-2.084;2023-02-11T01:20:51;103744.31;;;7.61;100.00
64192;BME280;50497;50.720;-2.084;2023-02-11T01:23:17;103746.94;;;7.57;100.00
64192;BME280;50497;50.720;-2.084;2023-02-11T01:25:42;103747.88;;;7.63;100.00
64192;BME280;50497;50.720;-2.084;2023-02-11T01:28:27;103745.19;;;7.59;100.00
64192;BME280;50497;50.720;-2.084;2023-02-11T01:30:56;103731.03;;;7.64;100.00
64192;BME280;50497;50.720;-2.084;2023-02-11T01:33:22;103720.38;;;7.64;100.00
64192;BME280;50497;50.720;-2.084;2023-02-11T01:35:48;103716.72;;;7.58;100.00
64192;BME280;50497;50.720;-2.084;2023-02-11T01:38:19;103699.78;;;7.52;100.00
64192;BME280;50497;50.720;-2.084;2023-02-11T01:40:47;103714.25;;;7.71;100.00
64192;BME280;50497;50.720;-2.084;2023-02-11T01:43:13;103693.69;;;7.61;100.00
64192;BME280;50497;50.720;-2.084;2023-02-11T01:48:24;103697.31;;;7.66;100.00
64192;BME280;50497;50.720;-2.084;2023-02-11T01:50:56;103692.03;;;7.70;100.00
64192;BME280;50497;50.720;-2.084;2023-02-11T01:53:23;103673.28;;;7.64;100.00
64192;BME280;50497;50.720;-2.084;2023-02-11T01:56:09;103670.69;;;7.72;100.00
64192;BME280;50497;50.720;-2.084;2023-02-11T01:58:59;103664.41;;;7.64;100.00
64192;BME280;50497;50.720;-2.084;2023-02-11T02:01:27;103651.97;;;7.64;100.00
64192;BME280;50497;50.720;-2.084;2023-02-11T02:03:59;103636.00;;;7.64;100.00
64192;BME280;50497;50.720;-2.084;2023-02-11T02:06:33;103622.69;;;7.66;100.00
64192;BME280;50497;50.720;-2.084;2023-02-11T02:09:07;103622.66;;;7.63;100.00
64192;BME280;50497;50.720;-2.084;2023-02-11T02:11:34;103599.50;;;7.55;100.00
64192;BME280;50497;50.720;-2.084;2023-02-11T02:13:59;103609.25;;;7.58;100.00
64192;BME280;50497;50.720;-2.084;2023-02-11T02:16:30;103599.50;;;7.55;100.00
64192;BME280;50497;50.720;-2.084;2023-02-11T02:19:24;103592.31;;;7.51;100.00
64192;BME280;50497;50.720;-2.084;2023-02-11T02:27:58;103574.56;;;7.53;100.00
64192;BME280;50497;50.720;-2.084;2023-02-11T02:30:52;103578.06;;;7.48;100.00
64192;BME280;50497;50.720;-2.084;2023-02-11T02:33:39;103574.44;;;7.41;100.00
64192;BME280;50497;50.720;-2.084;2023-02-11T02:36:14;103571.84;;;7.46;100.00
64192;BME280;50497;50.720;-2.084;2023-02-11T02:39:01;103571.94;;;7.55;100.00
64192;BME280;50497;50.720;-2.084;2023-02-11T02:41:33;103578.19;;;7.55;100.00
64192;BME280;50497;50.720;-2.084;2023-02-11T02:43:59;103558.56;;;7.49;100.00
64192;BME280;50497;50.720;-2.084;2023-02-11T02:46:30;103570.97;;;7.48;100.00
64192;BME280;50497;50.720;-2.084;2023-02-11T02:48:56;103572.66;;;7.42;100.00
64192;BME280;50497;50.720;-2.084;2023-02-11T02:54:46;103554.97;;;7.48;100.00
64192;BME280;50497;50.720;-2.084;2023-02-11T03:08:29;103526.44;;;7.36;100.00
64192;BME280;50497;50.720;-2.084;2023-02-11T03:10:55;103538.03;;;7.42;100.00
64192;BME280;50497;50.720;-2.084;2023-02-11T03:13:26;103528.34;;;7.48;100.00
64192;BME280;50497;50.720;-2.084;2023-02-11T03:15:55;103524.81;;;7.49;100.00
64192;BME280;50497;50.720;-2.084;2023-02-11T03:18:27;103506.16;;;7.48;100.00
64192;BME280;50497;50.720;-2.084;2023-02-11T03:20:55;103513.31;;;7.55;100.00
64192;BME280;50497;50.720;-2.084;2023-02-11T03:23:32;103521.41;;;7.64;100.00
64192;BME280;50497;50.720;-2.084;2023-02-11T03:26:10;103515.22;;;7.70;100.00
64192;BME280;50497;50.720;-2.084;2023-02-11T03:28:52;103505.47;;;7.69;100.00
64192;BME280;50497;50.720;-2.084;2023-02-11T03:31:26;103474.25;;;7.57;100.00
64192;BME280;50497;50.720;-2.084;2023-02-11T03:34:13;103484.06;;;7.59;100.00
64192;BME280;50497;50.720;-2.084;2023-02-11T03:37:00;103491.28;;;7.73;100.00
64192;BME280;50497;50.720;-2.084;2023-02-11T03:39:32;103485.09;;;7.78;100.00
64192;BME280;50497;50.720;-2.084;2023-02-11T03:41:59;103485.09;;;7.78;100.00
64192;BME280;50497;50.720;-2.084;2023-02-11T03:44:30;103478.88;;;7.78;100.00
64192;BME280;50497;50.720;-2.084;2023-02-11T03:46:59;103475.28;;;7.71;100.00
64192;BME280;50497;50.720;-2.084;2023-02-11T03:49:27;103466.44;;;7.74;100.00
64192;BME280;50497;50.720;-2.084;2023-02-11T03:51:55;103474.47;;;7.82;100.00
64192;BME280;50497;50.720;-2.084;2023-02-11T03:54:28;103476.25;;;7.83;100.00
64192;BME280;50497;50.720;-2.084;2023-02-11T03:56:56;103478.00;;;7.77;100.00
64192;BME280;50497;50.720;-2.084;2023-02-11T03:59:22;103470.88;;;7.78;100.00
64192;BME280;50497;50.720;-2.084;2023-02-11T04:01:48;103466.44;;;7.77;100.00
64192;BME280;50497;50.720;-2.084;2023-02-11T04:04:14;103470.88;;;7.78;100.00
64192;BME280;50497;50.720;-2.084;2023-02-11T04:06:39;103472.72;;;7.82;100.00
64192;BME280;50497;50.720;-2.084;2023-02-11T04:09:05;103470.91;;;7.81;100.00
64192;BME280;50497;50.720;-2.084;2023-02-11T04:11:31;103465.56;;;7.80;100.00
64192;BME280;50497;50.720;-2.084;2023-02-11T04:13:56;103466.50;;;7.86;100.00
64192;BME280;50497;50.720;-2.084;2023-02-11T04:16:22;103471.88;;;7.91;100.00
64192;BME280;50497;50.720;-2.084;2023-02-11T04:18:47;103449.59;;;7.81;100.00
64192;BME280;50497;50.720;-2.084;2023-02-11T04:21:13;103460.25;;;7.81;100.00
64192;BME280;50497;50.720;-2.084;2023-02-11T04:23:38;103474.53;;;7.91;100.00
64192;BME280;50497;50.720;-2.084;2023-02-11T04:26:05;103479.81;;;7.85;100.00
64192;BME280;50497;50.720;-2.084;2023-02-11T04:28:30;103478.94;;;7.84;100.00
64192;BME280;50497;50.720;-2.084;2023-02-11T04:30:56;103473.63;;;7.87;100.00
64192;BME280;50497;50.720;-2.084;2023-02-11T04:33:22;103477.13;;;7.83;100.00
64192;BME280;50497;50.720;-2.084;2023-02-11T04:35:47;103475.44;;;7.91;100.00
64192;BME280;50497;50.720;-2.084;2023-02-11T04:38:13;103476.31;;;7.87;100.00
64192;BME280;50497;50.720;-2.084;2023-02-11T04:40:39;103477.19;;;7.89;100.00
64192;BME280;50497;50.720;-2.084;2023-02-11T04:43:05;103467.31;;;7.76;100.00
64192;BME280;50497;50.720;-2.084;2023-02-11T04:45:31;103481.56;;;7.81;100.00
64192;BME280;50497;50.720;-2.084;2023-02-11T04:47:56;103466.44;;;7.74;100.00
64192;BME280;50497;50.720;-2.084;2023-02-11T04:50:22;103472.78;;;7.93;100.00
64192;BME280;50497;50.720;-2.084;2023-02-11T04:52:47;103454.09;;;7.85;100.00
64192;BME280;50497;50.720;-2.084;2023-02-11T04:55:13;103468.38;;;8.00;100.00
64192;BME280;50497;50.720;-2.084;2023-02-11T04:57:38;103485.28;;;8.03;100.00
64192;BME280;50497;50.720;-2.084;2023-02-11T05:00:04;103480.88;;;8.05;100.00
64192;BME280;50497;50.720;-2.084;2023-02-11T05:02:30;103486.19;;;8.04;100.00
64192;BME280;50497;50.720;-2.084;2023-02-11T05:04:56;103470.19;;;8.01;100.00
64192;BME280;50497;50.720;-2.084;2023-02-11T05:07:21;103486.22;;;8.07;100.00
64192;BME280;50497;50.720;-2.084;2023-02-11T05:09:47;103487.13;;;8.07;100.00
64192;BME280;50497;50.720;-2.084;2023-02-11T05:12:14;103494.22;;;8.10;100.00
64192;BME280;50497;50.720;-2.084;2023-02-11T05:14:40;103487.09;;;8.06;100.00
64192;BME280;50497;50.720;-2.084;2023-02-11T05:17:05;103497.75;;;8.03;100.00
64192;BME280;50497;50.720;-2.084;2023-02-11T05:19:31;103490.63;;;8.05;100.00
64192;BME280;50497;50.720;-2.084;2023-02-11T05:21:57;103495.94;;;8.03;100.00
64192;BME280;50497;50.720;-2.084;2023-02-11T05:24:22;103483.56;;;8.07;100.00
64192;BME280;50497;50.720;-2.084;2023-02-11T05:26:48;103478.22;;;8.07;100.00
64192;BME280;50497;50.720;-2.084;2023-02-11T05:29:13;103486.22;;;8.07;100.00
64192;BME280;50497;50.720;-2.084;2023-02-11T05:31:39;103482.59;;;8.02;100.00
64192;BME280;50497;50.720;-2.084;2023-02-11T05:34:04;103463.00;;;7.93;100.00
64192;BME280;50497;50.720;-2.084;2023-02-11T05:36:29;103466.59;;;7.95;100.00
64192;BME280;50497;50.720;-2.084;2023-02-11T05:38:55;103471.00;;;7.90;100.00
64192;BME280;50497;50.720;-2.084;2023-02-11T05:41:21;103483.53;;;8.02;100.00
64192;BME280;50497;50.720;-2.084;2023-02-11T05:43:47;103473.63;;;7.87;100.00
64192;BME280;50497;50.720;-2.084;2023-02-11T05:46:16;103480.84;;;8.02;100.00
64192;BME280;50497;50.720;-2.084;2023-02-11T05:48:41;103459.47;;;7.94;100.00
64192;BME280;50497;50.720;-2.084;2023-02-11T05:51:06;103485.31;;;8.05;100.00
64192;BME280;50497;50.720;-2.084;2023-02-11T05:53:32;103492.44;;;8.06;100.00
64192;BME280;50497;50.720;-2.084;2023-02-11T05:55:57;103489.78;;;8.07;100.00
64192;BME280;50497;50.720;-2.084;2023-02-11T05:58:23;103501.31;;;8.05;100.00
64192;BME280;50497;50.720;-2.084;2023-02-11T06:00:48;103480.81;;;7.98;100.00
64192;BME280;50497;50.720;-2.084;2023-02-11T06:03:14;103495.94;;;7.99;100.00
64192;BME280;50497;50.720;-2.084;2023-02-11T06:05:41;103485.22;;;7.91;100.00
64192;BME280;50497;50.720;-2.084;2023-02-11T06:08:07;103476.28;;;7.86;100.00
64192;BME280;50497;50.720;-2.084;2023-02-11T06:10:32;103486.19;;;8.01;100.00
64192;BME280;50497;50.720;-2.084;2023-02-11T06:12:57;103488.84;;;8.02;100.00
64192;BME280;50497;50.720;-2.084;2023-02-11T06:15:23;103493.28;;;8.00;100.00
64192;BME280;50497;50.720;-2.084;2023-02-11T06:17:49;103475.44;;;7.93;100.00
64192;BME280;50497;50.720;-2.084;2023-02-11T06:20:14;103479.91;;;7.92;100.00
64192;BME280;50497;50.720;-2.084;2023-02-11T06:22:40;103503.06;;;8.01;100.00
64192;BME280;50497;50.720;-2.084;2023-02-11T06:25:05;103495.97;;;8.00;100.00
64192;BME280;50497;50.720;-2.084;2023-02-11T06:27:31;103496.78;;;7.94;100.00
64192;BME280;50497;50.720;-2.084;2023-02-11T06:29:56;103502.09;;;7.91;100.00
64192;BME280;50497;50.720;-2.084;2023-02-11T06:32:22;103496.75;;;7.91;100.00
64192;BME280;50497;50.720;-2.084;2023-02-11T06:34:47;103497.69;;;7.96;100.00
64192;BME280;50497;50.720;-2.084;2023-02-11T06:37:13;103498.56;;;7.92;100.00
64192;BME280;50497;50.720;-2.084;2023-02-11T06:39:38;103499.38;;;7.88;100.00
64192;BME280;50497;50.720;-2.084;2023-02-11T06:42:04;103510.97;;;7.90;100.00
64192;BME280;50497;50.720;-2.084;2023-02-11T06:44:29;103497.53;;;7.76;100.00
64192;BME280;50497;50.720;-2.084;2023-02-11T06:46:55;103498.44;;;7.80;100.00
64192;BME280;50497;50.720;-2.084;2023-02-11T06:49:20;103493.97;;;7.76;100.00
64192;BME280;50497;50.720;-2.084;2023-02-11T06:51:45;103502.03;;;7.84;100.00
64192;BME280;50497;50.720;-2.084;2023-02-11T06:54:11;103513.56;;;7.81;100.00
64192;BME280;50497;50.720;-2.084;2023-02-11T06:56:39;103521.50;;;7.75;100.00
64192;BME280;50497;50.720;-2.084;2023-02-11T06:59:05;103507.16;;;7.61;100.00
64192;BME280;50497;50.720;-2.084;2023-02-11T07:01:31;103516.13;;;7.72;100.00
64192;BME280;50497;50.720;-2.084;2023-02-11T07:03:56;103511.66;;;7.68;100.00
64192;BME280;50497;50.720;-2.084;2023-02-11T07:06:25;103519.66;;;7.68;100.00
64192;BME280;50497;50.720;-2.084;2023-02-11T07:08:53;103533.88;;;7.70;100.00
64192;BME280;50497;50.720;-2.084;2023-02-11T07:11:21;103533.00;;;7.69;100.00
64192;BME280;50497;50.720;-2.084;2023-02-11T07:13:49;103524.03;;;7.61;100.00
64192;BME280;50497;50.720;-2.084;2023-02-11T07:16:16;103535.66;;;7.68;100.00
64192;BME280;50497;50.720;-2.084;2023-02-11T07:18:43;103535.66;;;7.68;100.00
64192;BME280;50497;50.720;-2.084;2023-02-11T07:21:13;103528.53;;;7.64;100.00
64192;BME280;50497;50.720;-2.084;2023-02-11T07:23:45;103532.94;;;7.65;100.00
64192;BME280;50497;50.720;-2.084;2023-02-11T07:26:19;103524.91;;;7.62;100.00
64192;BME280;50497;50.720;-2.084;2023-02-11T07:28:46;103532.09;;;7.66;100.00
64192;BME280;50497;50.720;-2.084;2023-02-11T07:31:21;103528.53;;;7.68;100.00
64192;BME280;50497;50.720;-2.084;2023-02-11T07:33:52;103542.78;;;7.69;100.00
64192;BME280;50497;50.720;-2.084;2023-02-11T07:36:18;103532.97;;;7.68;100.00
64192;BME280;50497;50.720;-2.084;2023-02-11T07:38:44;103537.44;;;7.69;100.00
64192;BME280;50497;50.720;-2.084;2023-02-11T07:41:12;103540.09;;;7.67;100.00
64192;BME280;50497;50.720;-2.084;2023-02-11T07:43:39;103517.78;;;7.57;100.00
64192;BME280;50497;50.720;-2.084;2023-02-11T07:46:06;103542.78;;;7.72;100.00
64192;BME280;50497;50.720;-2.084;2023-02-11T07:48:35;103525.72;;;7.53;100.00
64192;BME280;50497;50.720;-2.084;2023-02-11T07:51:30;103545.44;;;7.69;100.00
64192;BME280;50497;50.720;-2.084;2023-02-11T07:53:58;103544.63;;;7.76;100.00
64192;BME280;50497;50.720;-2.084;2023-02-11T07:56:28;103545.47;;;7.73;100.00
64192;BME280;50497;50.720;-2.084;2023-02-11T07:59:03;103542.91;;;7.83;100.00
64192;BME280;50497;50.720;-2.084;2023-02-11T08:01:42;103540.25;;;7.84;100.00
64192;BME280;50497;50.720;-2.084;2023-02-11T08:04:12;103540.28;;;7.89;100.00
64192;BME280;50497;50.720;-2.084;2023-02-11T08:06:40;103549.22;;;7.94;100.00
64192;BME280;50497;50.720;-2.084;2023-02-11T08:09:17;103550.09;;;7.94;100.00
64192;BME280;50497;50.720;-2.084;2023-02-11T08:11:50;103548.41;;;8.03;100.00
64192;BME280;50497;50.720;-2.084;2023-02-11T08:14:24;103551.94;;;8.02;100.00
64192;BME280;50497;50.720;-2.084;2023-02-11T08:16:57;103561.75;;;8.06;100.00
64192;BME280;50497;50.720;-2.084;2023-02-11T08:19:23;103569.75;;;8.06;100.00
64192;BME280;50497;50.720;-2.084;2023-02-11T08:21:49;103565.38;;;8.14;100.00
64192;BME280;50497;50.720;-2.084;2023-02-11T08:24:21;103562.69;;;8.12;100.00
64192;BME280;50497;50.720;-2.084;2023-02-11T08:26:53;103561.84;;;8.18;100.00
64192;BME280;50497;50.720;-2.084;2023-02-11T08:29:28;103561.91;;;8.24;100.00
64192;BME280;50497;50.720;-2.084;2023-02-11T08:32:03;103563.72;;;8.30;100.00
64192;BME280;50497;50.720;-2.084;2023-02-11T08:34:36;103564.63;;;8.30;100.00
64192;BME280;50497;50.720;-2.084;2023-02-11T08:37:01;103553.03;;;8.27;100.00
64192;BME280;50497;50.720;-2.084;2023-02-11T08:39:34;103569.09;;;8.36;100.00
64192;BME280;50497;50.720;-2.084;2023-02-11T08:42:05;103576.22;;;8.36;100.00
64192;BME280;50497;50.720;-2.084;2023-02-11T08:44:33;103570.06;;;8.43;100.00
64192;BME280;50497;50.720;-2.084;2023-02-11T08:46:59;103570.16;;;8.52;100.00
64192;BME280;50497;50.720;-2.084;2023-02-11T08:49:24;103558.56;;;8.53;100.00
64192;BME280;50497;50.720;-2.084;2023-02-11T08:51:54;103555.91;;;8.48;100.00
64192;BME280;50497;50.720;-2.084;2023-02-11T08:54:21;103568.44;;;8.63;100.00
64192;BME280;50497;50.720;-2.084;2023-02-11T08:56:50;103566.69;;;8.68;100.00
64192;BME280;50497;50.720;-2.084;2023-02-11T08:59:15;103566.63;;;8.59;100.00
64192;BME280;50497;50.720;-2.084;2023-02-11T09:01:42;103569.31;;;8.64;100.00
64192;BME280;50497;50.720;-2.084;2023-02-11T09:04:13;103573.84;;;8.76;100.00
64192;BME280;50497;50.720;-2.084;2023-02-11T09:06:42;103567.66;;;8.84;100.00
64192;BME280;50497;50.720;-2.084;2023-02-11T09:09:10;103571.25;;;8.93;100.00
64192;BME280;50497;50.720;-2.084;2023-02-11T09:11:38;103551.63;;;8.86;100.00
64192;BME280;50497;50.720;-2.084;2023-02-11T09:14:05;103571.31;;;9.02;100.00
64192;BME280;50497;50.720;-2.084;2023-02-11T09:16:35;103571.31;;;9.02;100.00
64192;BME280;50497;50.720;-2.084;2023-02-11T09:19:03;103568.66;;;9.10;100.00
64192;BME280;50497;50.720;-2.084;2023-02-11T09:21:31;103568.69;;;9.08;100.00
64192;BME280;50497;50.720;-2.084;2023-02-11T09:23:57;103565.97;;;9.03;100.00
64192;BME280;50497;50.720;-2.084;2023-02-11T09:26:27;103562.41;;;9.07;100.00
64192;BME280;50497;50.720;-2.084;2023-02-11T09:28:53;103572.19;;;9.02;100.00
64192;BME280;50497;50.720;-2.084;2023-02-11T09:31:21;103565.94;;;8.99;100.00
64192;BME280;50497;50.720;-2.084;2023-02-11T09:33:57;103555.28;;;9.10;100.00
64192;BME280;50497;50.720;-2.084;2023-02-11T09:36:31;103555.34;;;9.17;100.00
64192;BME280;50497;50.720;-2.084;2023-02-11T09:39:03;103564.25;;;9.15;100.00
64192;BME280;50497;50.720;-2.084;2023-02-11T09:44:31;103564.28;;;9.29;100.00
64192;BME280;50497;50.720;-2.084;2023-02-11T09:50:03;103550.94;;;9.30;100.00
64192;BME280;50497;50.720;-2.084;2023-02-11T09:52:45;103558.09;;;9.43;100.00
64192;BME280;50497;50.720;-2.084;2023-02-11T09:55:24;103555.41;;;9.40;100.00
64192;BME280;50497;50.720;-2.084;2023-02-11T09:57:51;103564.38;;;9.58;100.00
64192;BME280;50497;50.720;-2.084;2023-02-11T10:00:24;103565.22;;;9.48;100.00
64192;BME280;50497;50.720;-2.084;2023-02-11T10:22:09;103600.09;;;10.40;100.00
64192;BME280;50497;50.720;-2.084;2023-02-11T10:24:41;103588.53;;;10.37;100.00
64192;BME280;50497;50.720;-2.084;2023-02-11T10:27:20;103613.47;;;10.37;100.00
64192;BME280;50497;50.720;-2.084;2023-02-11T10:29:55;103625.09;;;10.51;100.00
64192;BME280;50497;50.720;-2.084;2023-02-11T10:32:48;103631.31;;;10.47;100.00
64192;BME280;50497;50.720;-2.084;2023-02-11T10:35:21;103621.50;;;10.59;100.00
64192;BME280;50497;50.720;-2.084;2023-02-11T10:37:54;103626.84;;;10.60;100.00
64192;BME280;50497;50.720;-2.084;2023-02-11T10:40:27;103635.75;;;10.68;100.00
64192;BME280;50497;50.720;-2.084;2023-02-11T10:43:03;103637.53;;;10.76;100.00
64192;BME280;50497;50.720;-2.084;2023-02-11T10:45:41;103639.31;;;10.87;100.00
64192;BME280;50497;50.720;-2.084;2023-02-11T10:51:31;103634.84;;;10.93;100.00
64192;BME280;50497;50.720;-2.084;2023-02-11T10:54:15;103643.75;;;11.01;100.00
64192;BME280;50497;50.720;-2.084;2023-02-11T10:56:50;103650.91;;;10.86;100.00
64192;BME280;50497;50.720;-2.084;2023-02-11T10:59:33;103653.56;;;11.05;100.00
64192;BME280;50497;50.720;-2.084;2023-02-11T11:02:23;103641.97;;;10.98;100.00
64192;BME280;50497;50.720;-2.084;2023-02-11T11:05:02;103639.28;;;11.01;100.00
64192;BME280;50497;50.720;-2.084;2023-02-11T11:07:51;103640.06;;;11.36;100.00
64192;BME280;50497;50.720;-2.084;2023-02-11T11:10:33;103645.25;;;11.65;100.00
64192;BME280;50497;50.720;-2.084;2023-02-11T11:13:00;103642.41;;;12.02;100.00
64192;BME280;50497;50.720;-2.084;2023-02-11T11:15:29;103652.97;;;12.24;100.00
64192;BME280;50497;50.720;-2.084;2023-02-11T11:18:15;103654.69;;;12.32;100.00
64192;BME280;50497;50.720;-2.084;2023-02-11T11:21:19;103656.59;;;12.18;100.00
64192;BME280;50497;50.720;-2.084;2023-02-11T11:23:58;103671.78;;;12.20;100.00
64192;BME280;50497;50.720;-2.084;2023-02-11T11:26:40;103682.56;;;12.16;100.00
64192;BME280;50497;50.720;-2.084;2023-02-11T11:29:12;103674.41;;;12.27;100.00
64192;BME280;50497;50.720;-2.084;2023-02-11T11:31:55;103654.59;;;12.43;100.00
64192;BME280;50497;50.720;-2.084;2023-02-11T11:34:27;103667.75;;;12.72;100.00
64192;BME280;50497;50.720;-2.084;2023-02-11T11:36:57;103669.44;;;12.83;100.00
64192;BME280;50497;50.720;-2.084;2023-02-11T11:39:29;103670.19;;;13.00;100.00
64192;BME280;50497;50.720;-2.084;2023-02-11T11:42:00;103689.19;;;12.82;100.00
64192;BME280;50497;50.720;-2.084;2023-02-11T11:44:34;103692.59;;;12.96;100.00
64192;BME280;50497;50.720;-2.084;2023-02-11T11:47:18;103691.75;;;12.92;100.00
64192;BME280;50497;50.720;-2.084;2023-02-11T11:52:53;103690.03;;;12.85;100.00
64192;BME280;50497;50.720;-2.084;2023-02-11T11:57:55;103671.03;;;13.02;100.00
64192;BME280;50497;50.720;-2.084;2023-02-11T12:00:35;103675.56;;;12.99;100.00
64192;BME280;50497;50.720;-2.084;2023-02-11T12:19:48;103667.81;;;12.66;100.00
64192;BME280;50497;50.720;-2.084;2023-02-11T12:22:32;103652.00;;;13.21;100.00
64192;BME280;50497;50.720;-2.084;2023-02-11T12:36:59;103639.88;;;12.86;100.00
64192;BME280;50497;50.720;-2.084;2023-02-11T12:47:58;103633.59;;;12.87;100.00
64192;BME280;50497;50.720;-2.084;2023-02-11T12:53:31;103627.88;;;13.16;100.00
64192;BME280;50497;50.720;-2.084;2023-02-11T12:56:22;103620.81;;;13.06;100.00
64192;BME280;50497;50.720;-2.084;2023-02-11T12:58:59;103629.69;;;13.14;100.00
64192;BME280;50497;50.720;-2.084;2023-02-11T13:01:39;103628.94;;;13.01;100.00
64192;BME280;50497;50.720;-2.084;2023-02-11T13:04:12;103636.50;;;12.67;100.00
64192;BME280;50497;50.720;-2.084;2023-02-11T13:06:47;103642.84;;;12.55;100.00
64192;BME280;50497;50.720;-2.084;2023-02-11T13:09:25;103644.63;;;12.56;100.00
64192;BME280;50497;50.720;-2.084;2023-02-11T13:11:59;103633.69;;;12.74;100.00
64192;BME280;50497;50.720;-2.084;2023-02-11T13:14:51;103616.75;;;14.60;100.00
64192;BME280;50497;50.720;-2.084;2023-02-11T13:17:38;103642.63;;;15.19;100.00
64192;BME280;50497;50.720;-2.084;2023-02-11T13:23:32;103653.31;;;13.63;100.00
64192;BME280;50497;50.720;-2.084;2023-02-11T13:26:20;103649.16;;;13.38;100.00
64192;BME280;50497;50.720;-2.084;2023-02-11T13:29:08;103653.13;;;13.01;100.00
64192;BME280;50497;50.720;-2.084;2023-02-11T13:31:39;103650.69;;;12.76;100.00
64192;BME280;50497;50.720;-2.084;2023-02-11T13:34:26;103642.56;;;12.83;100.00
64192;BME280;50497;50.720;-2.084;2023-02-11T13:42:59;103623.44;;;12.25;100.00
64192;BME280;50497;50.720;-2.084;2023-02-11T13:45:41;103636.94;;;12.14;100.00
64192;BME280;50497;50.720;-2.084;2023-02-11T13:48:25;103635.94;;;12.26;100.00
64192;BME280;50497;50.720;-2.084;2023-02-11T13:51:13;103607.28;;;12.30;100.00
64192;BME280;50497;50.720;-2.084;2023-02-11T13:53:43;103621.78;;;12.09;100.00
64192;BME280;50497;50.720;-2.084;2023-02-11T13:56:23;103604.72;;;12.16;100.00
64192;BME280;50497;50.720;-2.084;2023-02-11T13:59:02;103618.16;;;12.10;100.00
64192;BME280;50497;50.720;-2.084;2023-02-11T14:04:33;103617.16;;;12.25;100.00
64192;BME280;50497;50.720;-2.084;2023-02-11T14:07:26;103619.94;;;12.15;100.00
64192;BME280;50497;50.720;-2.084;2023-02-11T14:21:19;103594.16;;;11.91;100.00
64192;BME280;50497;50.720;-2.084;2023-02-11T14:23:52;103602.19;;;11.94;100.00
64192;BME280;50497;50.720;-2.084;2023-02-11T14:26:49;103604.88;;;11.96;100.00
64192;BME280;50497;50.720;-2.084;2023-02-11T14:37:27;103597.38;;;12.35;100.00
64192;BME280;50497;50.720;-2.084;2023-02-11T14:42:31;103585.88;;;12.25;100.00
64192;BME280;50497;50.720;-2.084;2023-02-11T14:45:06;103601.97;;;12.25;100.00
64192;BME280;50497;50.720;-2.084;2023-02-11T14:47:45;103600.13;;;12.29;100.00
64192;BME280;50497;50.720;-2.084;2023-02-11T14:50:32;103602.81;;;12.30;100.00
64192;BME280;50497;50.720;-2.084;2023-02-11T14:53:00;103603.88;;;12.11;100.00
64192;BME280;50497;50.720;-2.084;2023-02-11T14:55:36;103602.88;;;12.19;100.00
64192;BME280;50497;50.720;-2.084;2023-02-11T14:58:07;103607.38;;;12.17;100.00
64192;BME280;50497;50.720;-2.084;2023-02-11T15:03:31;103601.31;;;11.94;100.00
64192;BME280;50497;50.720;-2.084;2023-02-11T15:06:06;103604.00;;;11.95;100.00
64192;BME280;50497;50.720;-2.084;2023-02-11T15:08:35;103589.75;;;11.81;100.00
64192;BME280;50497;50.720;-2.084;2023-02-11T15:11:14;103592.41;;;11.84;100.00